Time;durP1;ratioP1;P1;durP2;ratioP2;P2;SDS_P1;SDS_P2;PMS_P1;PMS_P2;Temp;Humidity;BMP_temperature;BMP_pressure;BME280_temperature;BME280_humidity;BME280_pressure;Samples;Min_cycle;Max_cycle;Signal;HPM_P1;HPM_P2
2022/11/22 00:00:39;;;;;;;27.40;17.38;;;;;;;-4.02;88.50;99436.16;4986438;28;20076;-63
2022/11/22 00:03:05;;;;;;;28.30;17.95;;;;;;;-4.06;88.72;99424.22;4986657;28;20037;-65
2022/11/22 00:05:31;;;;;;;26.40;16.38;;;;;;;-4.02;88.49;99426.03;4986320;28;20019;-65
2022/11/22 00:07:56;;;;;;;26.13;16.40;;;;;;;-4.01;88.29;99421.81;4986053;28;20320;-64
2022/11/22 00:10:23;;;;;;;27.45;16.90;;;;;;;-4.03;89.40;99429.38;4986012;28;20085;-64
2022/11/22 00:12:48;;;;;;;29.45;16.92;;;;;;;-3.95;88.96;99423.69;4984688;28;20106;-64
2022/11/22 00:15:14;;;;;;;27.98;17.73;;;;;;;-3.99;89.02;99420.19;4986478;28;20031;-65
2022/11/22 00:17:40;;;;;;;26.95;16.85;;;;;;;-3.98;88.87;99426.97;4985681;28;20031;-65
2022/11/22 00:20:09;;;;;;;26.23;16.42;;;;;;;-4.09;89.48;99398.81;4985123;28;20350;-65
2022/11/22 00:22:35;;;;;;;32.15;18.30;;;;;;;-4.00;88.94;99393.19;4987397;28;20046;-62
2022/11/22 00:25:00;;;;;;;30.90;17.88;;;;;;;-4.15;89.16;99353.09;5000096;28;20211;-63
2022/11/22 00:27:26;;;;;;;29.83;17.10;;;;;;;-4.06;89.00;99378.69;4986171;28;20304;-63
2022/11/22 00:29:52;;;;;;;29.58;18.50;;;;;;;-4.01;88.82;99389.78;4985621;28;20038;-64
2022/11/22 00:32:17;;;;;;;27.95;18.70;;;;;;;-4.04;88.95;99379.59;5000567;28;20030;-64
2022/11/22 00:34:43;;;;;;;29.00;18.73;;;;;;;-3.94;90.00;99379.91;4994272;28;20319;-62
2022/11/22 00:37:08;;;;;;;30.67;17.65;;;;;;;-3.84;89.47;99389.50;4986050;28;20191;-63
2022/11/22 00:39:34;;;;;;;25.85;16.60;;;;;;;-4.07;89.32;99392.13;4985632;28;20027;-64
2022/11/22 00:42:00;;;;;;;32.03;17.17;;;;;;;-4.11;89.68;99382.72;4986052;28;20259;-64
2022/11/22 00:44:25;;;;;;;29.33;19.13;;;;;;;-3.91;89.43;99383.38;5002587;28;20052;-65
2022/11/22 00:46:51;;;;;;;27.83;17.30;;;;;;;-3.90;88.92;99381.72;4992921;28;20082;-65
2022/11/22 00:49:16;;;;;;;30.83;17.65;;;;;;;-3.95;89.46;99381.53;4985909;28;20089;-65
2022/11/22 00:51:42;;;;;;;31.45;18.27;;;;;;;-3.93;89.40;99372.34;4985317;28;20031;-65
2022/11/22 00:54:08;;;;;;;28.00;17.48;;;;;;;-3.76;89.41;99361.88;4985585;28;20046;-65
2022/11/22 00:56:34;;;;;;;28.58;17.65;;;;;;;-3.64;88.81;99368.19;4985481;28;20026;-65
2022/11/22 00:59:00;;;;;;;30.95;16.58;;;;;;;-3.87;88.28;99346.41;4985520;28;20086;-65
2022/11/22 01:01:26;;;;;;;28.10;16.95;;;;;;;-3.81;89.43;99364.28;4985532;28;20050;-65
2022/11/22 01:03:52;;;;;;;27.98;16.83;;;;;;;-3.92;89.59;99363.97;4984955;28;20023;-66
2022/11/22 01:06:18;;;;;;;31.60;16.70;;;;;;;-3.94;89.24;99359.66;4985368;28;20022;-66
2022/11/22 01:08:43;;;;;;;29.55;17.17;;;;;;;-3.92;89.53;99361.44;4984744;28;20094;-66
2022/11/22 01:11:09;;;;;;;30.15;17.45;;;;;;;-3.95;90.33;99358.78;4985484;28;20026;-65
2022/11/22 01:13:35;;;;;;;28.48;17.27;;;;;;;-3.84;89.81;99354.91;4984882;28;20064;-65
2022/11/22 01:16:07;;;;;;;28.83;17.38;;;;;;;-3.86;89.39;99323.69;4985557;28;20045;-66
2022/11/22 01:18:32;;;;;;;;;;;;;;;-3.71;89.95;99338.44;4985491;28;20031;-64
2022/11/22 01:20:58;;;;;;;28.55;17.35;;;;;;;-4.11;89.81;99283.28;4985366;28;19988;-64
2022/11/22 01:23:24;;;;;;;30.00;16.55;;;;;;;-3.85;90.35;99342.22;4992076;28;20271;-65
2022/11/22 01:25:50;;;;;;;30.85;17.17;;;;;;;-3.89;89.50;99333.72;4995256;28;20223;-64
2022/11/22 01:28:16;;;;;;;30.35;18.08;;;;;;;-3.78;89.59;99334.00;4997404;28;20037;-64
2022/11/22 01:30:42;;;;;;;31.27;18.33;;;;;;;-3.67;89.26;99327.59;4984721;28;20037;-65
2022/11/22 01:33:09;;;;;;;25.27;13.32;;;;;;;-3.89;90.05;99340.41;4984812;28;20053;-65
2022/11/22 01:35:34;;;;;;;30.45;16.83;;;;;;;-4.01;90.11;99329.09;4984564;28;20027;-65
2022/11/22 01:38:00;;;;;;;30.63;17.70;;;;;;;-3.93;90.47;99329.34;4984640;28;20029;-64
2022/11/22 01:40:26;;;;;;;30.00;17.83;;;;;;;-3.79;90.21;99322.19;4984738;28;20037;-64
2022/11/22 01:42:54;;;;;;;32.28;17.80;;;;;;;-3.98;89.95;99320.75;4984675;28;20026;-64
2022/11/22 01:45:45;;;;;;;30.42;17.38;;;;;;;-3.83;90.78;99340.63;4984764;28;20422;-64
2022/11/22 01:48:10;;;;;;;29.13;18.25;;;;;;;-3.78;90.03;99338.22;4965530;28;20039;-64
2022/11/22 01:50:38;;;;;;;32.47;19.27;;;;;;;-3.75;90.00;99318.91;4982428;28;20343;-64
2022/11/22 01:53:12;;;;;;;30.13;15.65;;;;;;;-3.99;90.71;99293.75;4984665;28;20053;-64
2022/11/22 01:55:39;;;;;;;33.92;19.13;;;;;;;-3.89;90.55;99305.00;4993931;28;20117;-63
2022/11/22 01:58:05;;;;;;;32.38;19.58;;;;;;;-3.77;90.41;99310.44;4998564;28;20069;-64
2022/11/22 02:00:30;;;;;;;33.95;19.25;;;;;;;-3.62;90.31;99301.59;4984112;28;20113;-65
2022/11/22 02:03:00;;;;;;;33.40;18.67;;;;;;;-3.82;90.08;99286.66;4984557;28;20034;-64
2022/11/22 02:05:31;;;;;;;31.48;19.02;;;;;;;-3.72;89.88;99276.03;4984279;28;20030;-64
2022/11/22 02:07:59;;;;;;;32.58;18.90;;;;;;;-3.58;90.00;99278.09;4977833;28;20034;-64
2022/11/22 02:10:28;;;;;;;33.88;18.00;;;;;;;-3.56;89.75;99281.50;4984248;28;20097;-65
2022/11/22 02:12:56;;;;;;;33.58;18.67;;;;;;;-3.89;90.59;99264.53;4984474;28;20026;-63
2022/11/22 02:15:22;;;;;;;34.00;19.85;;;;;;;-3.48;90.26;99262.34;4983949;28;20038;-63
2022/11/22 02:17:48;;;;;;;34.20;18.58;;;;;;;-3.66;90.04;99255.13;4983742;28;20084;-63
2022/11/22 02:20:16;;;;;;;31.20;17.00;;;;;;;-3.81;91.38;99247.91;4983391;28;20030;-63
2022/11/22 02:22:52;;;;;;;30.98;18.13;;;;;;;-3.62;90.63;99249.28;4986792;28;20049;-64
2022/11/22 02:25:31;;;;;;;28.58;16.50;;;;;;;-3.78;90.80;99263.19;4997039;28;20022;-64
2022/11/22 02:27:57;;;;;;;36.67;19.95;;;;;;;-3.74;91.01;99251.50;4984354;28;20023;-63
2022/11/22 02:30:23;;;;;;;34.67;18.17;;;;;;;-3.74;90.31;99246.44;4984078;28;20319;-64
2022/11/22 02:32:49;;;;;;;33.50;18.85;;;;;;;-3.70;90.41;99244.03;4983989;28;20040;-64
2022/11/22 02:35:24;;;;;;;33.63;19.48;;;;;;;-3.68;90.84;99234.81;4984079;28;20193;-64
2022/11/22 02:37:56;;;;;;;35.42;18.65;;;;;;;-3.72;90.45;99211.91;4983919;28;20102;-64
2022/11/22 02:40:23;;;;;;;34.60;19.35;;;;;;;-3.54;90.78;99227.59;4991071;28;20312;-64
2022/11/22 02:42:54;;;;;;;31.55;18.15;;;;;;;-3.65;90.14;99207.06;5000576;28;20044;-64
2022/11/22 02:45:20;;;;;;;33.63;19.20;;;;;;;-3.49;89.92;99210.03;4983613;28;20035;-63
2022/11/22 02:47:46;;;;;;;33.42;19.02;;;;;;;-3.47;90.65;99221.88;4983920;28;20037;-63
2022/11/22 02:50:12;;;;;;;30.58;18.02;;;;;;;-3.42;89.87;99224.56;4983886;28;20299;-63
2022/11/22 02:52:37;;;;;;;34.75;20.00;;;;;;;-3.37;90.13;99214.56;4983859;28;20382;-63
2022/11/22 02:55:03;;;;;;;37.33;18.90;;;;;;;-3.40;89.54;99210.25;4983900;28;20069;-65
2022/11/22 02:57:29;;;;;;;31.02;17.88;;;;;;;-3.30;89.14;99204.63;4983931;28;20272;-64
2022/11/22 02:59:55;;;;;;;22.13;12.48;;;;;;;-3.59;89.68;99202.97;4964796;28;20027;-64
2022/11/22 03:02:20;;;;;;;26.17;14.82;;;;;;;-3.67;89.96;99201.09;4979257;28;20027;-64
2022/11/22 03:04:46;;;;;;;31.45;17.67;;;;;;;-3.55;90.54;99192.13;4983690;28;20031;-65
2022/11/22 03:07:11;;;;;;;26.80;16.48;;;;;;;-3.53;90.21;99193.03;4982215;28;20034;-64
2022/11/22 03:09:37;;;;;;;32.47;18.70;;;;;;;-3.37;90.86;99185.03;5002043;28;20331;-65
2022/11/22 03:12:03;;;;;;;30.27;16.70;;;;;;;-3.47;89.94;99188.13;4983802;28;20090;-65
2022/11/22 03:14:28;;;;;;;28.30;17.15;;;;;;;-3.35;89.90;99180.88;4983516;28;20331;-65
2022/11/22 03:16:54;;;;;;;32.55;18.85;;;;;;;-3.43;89.89;99177.28;4983967;28;20030;-65
2022/11/22 03:19:20;;;;;;;31.30;18.58;;;;;;;-3.24;90.15;99175.22;4983676;28;20035;-64
2022/11/22 03:21:45;;;;;;;29.45;16.50;;;;;;;-3.32;90.72;99177.53;4983251;28;20027;-65
2022/11/22 03:24:11;;;;;;;30.50;17.15;;;;;;;-3.47;89.47;99168.75;4998123;28;20054;-65
2022/11/22 03:26:37;;;;;;;28.30;16.38;;;;;;;-3.48;90.33;99166.16;4985953;28;20037;-65
2022/11/22 03:29:03;;;;;;;26.58;16.08;;;;;;;-3.45;90.27;99166.25;4983466;28;20022;-65
2022/11/22 03:31:29;;;;;;;31.23;18.13;;;;;;;-3.30;89.92;99163.28;4985121;28;20030;-64
2022/11/22 03:33:55;;;;;;;30.02;17.85;;;;;;;-3.34;89.78;99153.88;4985851;28;20346;-64
2022/11/22 03:36:21;;;;;;;35.78;18.75;;;;;;;-3.22;90.28;99148.25;4987110;28;20078;-64
2022/11/22 03:38:46;;;;;;;26.58;15.15;;;;;;;-3.31;90.25;99153.94;5004874;28;20022;-64
2022/11/22 03:41:12;;;;;;;33.58;17.63;;;;;;;-3.34;89.98;99164.00;4993076;28;20030;-64
2022/11/22 03:43:38;;;;;;;30.50;17.40;;;;;;;-3.51;90.27;99121.38;4986645;28;20046;-65
2022/11/22 03:46:04;;;;;;;28.52;16.50;;;;;;;-3.35;90.02;99152.16;4987031;28;20026;-65
2022/11/22 03:48:30;;;;;;;27.50;16.30;;;;;;;-3.35;90.19;99134.44;4986834;28;20035;-65
2022/11/22 03:51:03;;;;;;;24.85;14.25;;;;;;;-3.42;90.06;99142.69;4986510;28;20057;-65
2022/11/22 03:53:29;;;;;;;33.33;18.20;;;;;;;-3.38;90.61;99132.69;4986398;28;20070;-64
2022/11/22 03:55:54;;;;;;;29.67;17.05;;;;;;;-3.39;91.15;99128.47;4985593;28;20026;-65
2022/11/22 03:58:20;;;;;;;32.90;17.85;;;;;;;-3.42;90.65;99135.09;4985316;28;20042;-64
2022/11/22 04:00:45;;;;;;;31.33;17.25;;;;;;;-3.40;90.85;99131.78;4978533;28;20034;-63
2022/11/22 04:03:11;;;;;;;29.25;16.77;;;;;;;-3.40;90.97;99126.72;5006091;28;20030;-63
2022/11/22 04:05:36;;;;;;;32.78;17.77;;;;;;;-3.26;90.69;99133.81;5005449;28;20037;-63
2022/11/22 04:08:02;;;;;;;31.23;16.70;;;;;;;-3.27;91.08;99122.00;4992899;28;20049;-64
2022/11/22 04:10:28;;;;;;;30.92;18.20;;;;;;;-3.20;90.92;99117.09;4986343;28;20038;-63
2022/11/22 04:12:58;;;;;;;31.90;17.70;;;;;;;-3.22;90.78;99113.69;4986047;28;20066;-63
2022/11/22 04:15:25;;;;;;;27.08;16.63;;;;;;;-3.27;90.98;99104.28;4985062;28;20023;-64
2022/11/22 04:17:51;;;;;;;28.98;17.23;;;;;;;-3.26;91.30;99109.38;4985383;28;20113;-64
2022/11/22 04:23:11;;;;;;;28.77;17.38;;;;;;;-3.16;92.07;99091.03;4991575;28;20026;-64
2022/11/22 04:25:40;;;;;;;28.65;16.50;;;;;;;-3.16;92.00;99087.66;4996747;28;20097;-64
2022/11/22 04:28:07;;;;;;;33.25;18.00;;;;;;;-3.14;91.72;99091.06;4986035;28;20066;-63
2022/11/22 04:33:18;;;;;;;29.25;16.08;;;;;;;-3.15;91.81;99081.75;4966784;28;20093;-65
2022/11/22 04:35:45;;;;;;;27.63;16.20;;;;;;;-3.18;93.28;99074.97;4983640;28;20042;-64
2022/11/22 04:38:11;;;;;;;29.65;16.83;;;;;;;-3.13;93.48;99078.44;4985843;28;20041;-65
2022/11/22 04:40:37;;;;;;;27.38;15.48;;;;;;;-3.14;92.81;99068.28;4985092;28;20027;-64
2022/11/22 04:45:49;;;;;;;25.88;13.23;;;;;;;-3.23;93.40;99051.19;4985354;28;20203;-64
2022/11/22 04:48:15;;;;;;;30.17;17.20;;;;;;;-3.07;93.23;99049.88;4985556;28;20073;-64
2022/11/22 04:53:26;;;;;;;27.65;15.80;;;;;;;-3.04;92.71;99022.09;4990487;28;20046;-63
2022/11/22 04:55:52;;;;;;;28.98;16.48;;;;;;;-2.87;92.30;99052.84;4995276;28;20046;-63
2022/11/22 04:58:18;;;;;;;25.67;15.50;;;;;;;-2.72;91.29;99054.88;4999405;28;20330;-63
2022/11/22 05:00:44;;;;;;;24.23;14.50;;;;;;;-2.84;91.30;99054.59;4990715;28;20034;-64
2022/11/22 05:03:10;;;;;;;25.38;15.55;;;;;;;-2.85;91.45;99055.41;5004547;28;20030;-63
2022/11/22 05:05:38;;;;;;;24.77;15.15;;;;;;;-2.68;91.60;99051.59;4997503;28;20019;-62
2022/11/22 05:08:04;;;;;;;25.40;16.13;;;;;;;-2.70;91.34;99044.78;4986466;28;20030;-63
2022/11/22 05:13:16;;;;;;;26.05;15.35;;;;;;;-2.61;92.42;99037.34;4997688;28;20033;-63
2022/11/22 05:15:41;;;;;;;28.45;15.68;;;;;;;-2.76;93.04;99025.22;4987230;28;20039;-63
2022/11/22 05:18:07;;;;;;;28.00;14.77;;;;;;;-2.66;93.26;99018.69;4983465;28;20046;-62
2022/11/22 05:20:32;;;;;;;25.75;15.02;;;;;;;-2.69;92.98;99013.56;4970207;28;20031;-62
2022/11/22 05:25:42;;;;;;;23.80;14.25;;;;;;;-2.61;93.26;98990.06;4973423;28;20034;-61
2022/11/22 05:28:08;;;;;;;25.02;14.15;;;;;;;-2.47;93.16;98995.41;4984673;28;20370;-63
2022/11/22 05:30:33;;;;;;;24.95;14.05;;;;;;;-2.57;93.39;98987.59;4984647;28;20039;-62
2022/11/22 05:32:59;;;;;;;26.95;15.20;;;;;;;-2.54;92.88;98985.97;4984629;28;20310;-62
2022/11/22 05:35:24;;;;;;;24.75;13.43;;;;;;;-2.49;92.77;98991.16;4984333;28;20034;-62
2022/11/22 05:37:50;;;;;;;24.95;14.70;;;;;;;-2.41;94.27;98993.81;4984027;28;20073;-62
2022/11/22 05:40:16;;;;;;;24.73;14.48;;;;;;;-2.34;93.76;98988.88;4984750;28;20034;-63
2022/11/22 05:42:42;;;;;;;25.45;14.77;;;;;;;-2.31;93.84;99001.63;4984453;28;20031;-62
2022/11/22 05:45:08;;;;;;;25.33;14.80;;;;;;;-2.28;93.63;98980.53;4984570;28;20050;-62
2022/11/22 05:47:34;;;;;;;24.75;13.98;;;;;;;-2.28;93.56;98993.22;4984452;28;20042;-61
2022/11/22 05:50:01;;;;;;;24.95;14.32;;;;;;;-2.37;93.34;98995.59;4984089;28;20026;-62
2022/11/22 05:52:26;;;;;;;20.98;11.18;;;;;;;-2.33;94.36;98988.06;4983710;28;20019;-62
2022/11/22 05:54:52;;;;;;;23.35;13.32;;;;;;;-2.42;94.00;98987.91;4985254;28;20038;-62
2022/11/22 05:57:17;;;;;;;24.52;13.13;;;;;;;-2.38;94.23;98979.53;4994829;28;20213;-62
2022/11/22 05:59:43;;;;;;;26.35;14.48;;;;;;;-2.31;94.95;98976.28;4995174;28;20101;-63
2022/11/22 06:02:08;;;;;;;25.52;13.50;;;;;;;-2.31;94.96;98966.13;4991098;28;20039;-63
2022/11/22 06:04:34;;;;;;;23.05;13.85;;;;;;;-2.16;95.51;98967.25;4984258;28;20042;-62
2022/11/22 06:07:00;;;;;;;24.38;14.27;;;;;;;-2.15;95.18;98956.25;4975606;28;20370;-62
2022/11/22 06:09:25;;;;;;;23.73;13.63;;;;;;;-2.23;94.60;98948.50;4984298;28;20023;-63
2022/11/22 06:11:51;;;;;;;25.35;14.10;;;;;;;-2.21;95.51;98935.88;4983689;28;20039;-63
2022/11/22 06:14:17;;;;;;;26.65;14.05;;;;;;;-2.15;95.07;98939.38;4983874;28;20037;-63
2022/11/22 06:16:42;;;;;;;21.92;13.10;;;;;;;-1.98;95.86;98939.66;4983978;28;20054;-63
2022/11/22 06:19:08;;;;;;;16.95;11.02;;;;;;;-1.94;95.61;98954.09;4984100;28;20027;-62
2022/11/22 06:21:33;;;;;;;22.50;14.02;;;;;;;-1.93;95.67;98938.03;4983995;28;20212;-64
2022/11/22 06:23:59;;;;;;;23.83;12.65;;;;;;;-1.97;94.97;98941.34;4996752;28;20026;-63
2022/11/22 06:26:26;;;;;;;23.70;13.13;;;;;;;-1.79;95.50;98939.97;4989774;28;20034;-62
2022/11/22 06:28:53;;;;;;;21.63;11.73;;;;;;;-1.91;95.60;98944.00;4983995;28;20031;-62
2022/11/22 06:31:21;;;;;;;23.17;13.07;;;;;;;-1.97;95.70;98912.59;4988437;28;20041;-62
2022/11/22 06:33:47;;;;;;;23.17;13.20;;;;;;;-1.72;95.44;98939.22;5002814;28;20026;-62
2022/11/22 06:36:16;;;;;;;16.80;10.65;;;;;;;-1.96;95.51;98920.22;4984119;28;20058;-61
2022/11/22 06:38:42;;;;;;;22.23;12.85;;;;;;;-1.70;95.66;98935.00;4983907;28;20093;-63
2022/11/22 06:41:10;;;;;;;18.90;11.38;;;;;;;-1.84;95.44;98906.03;4983839;28;20223;-64
2022/11/22 06:43:37;;;;;;;21.15;11.43;;;;;;;-1.78;95.44;98929.84;4983567;28;20030;-63
2022/11/22 06:46:04;;;;;;;22.65;12.15;;;;;;;-1.79;96.63;98909.50;4992746;28;20340;-65
2022/11/22 06:48:32;;;;;;;20.30;11.82;;;;;;;-1.69;96.44;98916.44;4986376;28;20034;-61
2022/11/22 06:51:22;;;;;;;19.35;10.00;;;;;;;-1.80;96.31;98903.56;4990330;28;20027;-63
2022/11/22 06:53:48;;;;;;;18.48;9.90;;;;;;;-1.87;95.90;98896.69;4983529;28;20074;-63
2022/11/22 06:56:19;;;;;;;16.55;10.00;;;;;;;-1.87;96.53;98886.53;4983948;28;20034;-64
2022/11/22 06:58:46;;;;;;;16.05;8.60;;;;;;;-1.82;96.13;98899.31;4983889;28;20026;-63
2022/11/22 07:01:23;;;;;;;13.90;7.75;;;;;;;-1.81;95.41;98906.94;4994592;28;20041;-63
2022/11/22 07:03:50;;;;;;;14.77;8.23;;;;;;;-1.79;96.60;98896.81;4993991;28;20045;-63
2022/11/22 07:06:18;;;;;;;10.88;6.90;;;;;;;-1.74;95.80;98900.25;4995118;28;20050;-63
2022/11/22 07:08:44;;;;;;;14.10;8.65;;;;;;;-1.64;96.12;98894.50;4996748;28;20319;-63
2022/11/22 07:11:13;;;;;;;13.70;8.15;;;;;;;-1.67;96.28;98893.59;4994855;28;20030;-64
2022/11/22 07:13:39;;;;;;;14.88;8.52;;;;;;;-1.53;96.01;98891.28;4997870;28;20101;-64
2022/11/22 07:16:07;;;;;;;14.73;8.18;;;;;;;-1.62;96.23;98879.31;4998396;28;20089;-64
2022/11/22 07:18:33;;;;;;;10.60;6.93;;;;;;;-1.58;95.60;98894.59;4994734;28;20319;-64
2022/11/22 07:21:01;;;;;;;12.60;7.20;;;;;;;-1.73;96.21;98874.91;4998139;28;20030;-64
2022/11/22 07:23:27;;;;;;;15.25;8.45;;;;;;;-1.51;95.78;98895.53;4997947;28;20106;-63
2022/11/22 07:25:53;;;;;;;12.10;6.88;;;;;;;-1.60;95.26;98885.25;4996117;28;20035;-63
2022/11/22 07:28:19;;;;;;;14.35;7.45;;;;;;;-1.53;95.18;98897.19;4995791;28;20314;-64
2022/11/22 07:30:44;;;;;;;11.93;7.25;;;;;;;-1.54;96.21;98890.41;4995750;28;20047;-64
2022/11/22 07:33:10;;;;;;;9.40;5.53;;;;;;;-1.62;96.10;98890.31;4995438;28;20065;-63
2022/11/22 07:35:36;;;;;;;10.77;6.72;;;;;;;-1.45;96.57;98894.78;4995474;28;20026;-63
2022/11/22 07:38:02;;;;;;;15.15;7.90;;;;;;;-1.48;96.55;98851.53;4994876;28;20244;-64
2022/11/22 07:40:28;;;;;;;11.65;7.15;;;;;;;-1.37;96.13;98880.47;4995314;28;20223;-65
2022/11/22 07:42:54;;;;;;;13.82;7.82;;;;;;;-1.20;96.44;98884.94;4994721;28;20026;-62
2022/11/22 07:45:19;;;;;;;10.63;6.13;;;;;;;-1.39;96.00;98884.69;4996412;28;20260;-63
2022/11/22 07:47:45;;;;;;;9.57;6.30;;;;;;;-1.29;96.49;98875.50;4992478;28;20330;-64
2022/11/22 07:50:11;;;;;;;11.38;7.07;;;;;;;-1.22;96.84;98879.84;4996952;28;20050;-63
2022/11/22 07:52:37;;;;;;;10.43;6.53;;;;;;;-1.19;97.08;98861.25;4995488;28;20042;-63
2022/11/22 07:55:05;;;;;;;10.68;6.85;;;;;;;-1.03;96.38;98880.91;5004061;28;20026;-63
2022/11/22 07:57:31;;;;;;;9.77;6.07;;;;;;;-1.03;97.19;98872.44;4985300;28;20140;-63
2022/11/22 07:59:57;;;;;;;10.55;6.25;;;;;;;-1.10;97.14;98858.81;4986451;28;20089;-64
2022/11/22 08:02:23;;;;;;;11.27;6.75;;;;;;;-0.92;97.06;98865.81;4985311;28;20361;-63
2022/11/22 08:04:48;;;;;;;8.70;5.50;;;;;;;-1.03;97.47;98862.28;4986197;28;20042;-62
2022/11/22 08:07:14;;;;;;;9.88;5.57;;;;;;;-1.09;97.06;98858.81;4976962;28;20093;-63
2022/11/22 08:09:39;;;;;;;9.93;5.95;;;;;;;-1.17;96.31;98862.94;4993084;28;20045;-63
2022/11/22 08:12:05;;;;;;;7.43;5.25;;;;;;;-1.21;96.03;98863.78;4994761;28;20023;-63
2022/11/22 08:14:31;;;;;;;11.05;5.93;;;;;;;-1.05;96.43;98850.41;4994027;28;20023;-63
2022/11/22 08:16:56;;;;;;;8.07;5.53;;;;;;;-0.97;97.28;98863.22;4994005;28;20046;-64
2022/11/22 08:19:22;;;;;;;7.93;5.97;;;;;;;-1.02;96.68;98866.53;4996812;28;20093;-63
2022/11/22 08:21:48;;;;;;;9.90;6.13;;;;;;;-0.94;97.26;98868.31;4994747;28;20211;-63
2022/11/22 08:24:14;;;;;;;9.85;6.40;;;;;;;-0.86;97.43;98860.78;4997268;28;20106;-63
2022/11/22 08:26:41;;;;;;;9.57;6.10;;;;;;;-0.91;97.31;98870.91;4993710;28;20053;-62
2022/11/22 08:29:09;;;;;;;11.52;6.70;;;;;;;-0.99;97.35;98869.09;4990730;28;20207;-67
2022/11/22 08:31:34;;;;;;;9.07;5.82;;;;;;;-0.98;97.29;98860.63;4993746;28;20037;-63
2022/11/22 08:34:00;;;;;;;9.15;5.70;;;;;;;-1.00;98.59;98862.31;4995642;28;20034;-63
2022/11/22 08:36:27;;;;;;;8.07;6.00;;;;;;;-0.98;97.68;98856.41;4995383;28;20061;-63
2022/11/22 08:38:52;;;;;;;9.05;6.40;;;;;;;-0.94;97.37;98854.75;4994727;28;20128;-64
2022/11/22 08:41:18;;;;;;;8.15;6.03;;;;;;;-0.99;97.66;98859.78;4995200;28;20238;-63
2022/11/22 08:43:44;;;;;;;10.02;6.65;;;;;;;-0.84;97.99;98843.88;4985512;28;20042;-63
2022/11/22 08:46:09;;;;;;;9.15;6.63;;;;;;;-0.90;96.90;98853.94;4985887;28;20042;-63
2022/11/22 08:48:36;;;;;;;10.93;6.47;;;;;;;-0.89;97.17;98859.03;4974066;28;20026;-63
2022/11/22 08:51:08;;;;;;;10.88;6.55;;;;;;;-0.81;97.19;98853.19;4992670;28;20069;-64
2022/11/22 08:53:36;;;;;;;9.07;5.97;;;;;;;-0.82;97.94;98823.56;4993874;28;20042;-63
2022/11/22 08:56:04;;;;;;;9.57;6.13;;;;;;;-0.81;98.16;98833.72;4990247;28;20026;-63
2022/11/22 08:58:31;;;;;;;11.80;6.40;;;;;;;-0.77;97.97;98835.47;5000016;28;20090;-64
2022/11/22 09:01:06;;;;;;;9.70;6.18;;;;;;;-0.78;99.12;98832.91;4985606;28;20038;-62
2022/11/22 09:03:34;;;;;;;9.00;6.40;;;;;;;-0.73;98.42;98823.63;4985477;28;20031;-62
2022/11/22 09:06:04;;;;;;;9.27;6.07;;;;;;;-0.69;98.84;98827.91;4985249;28;20026;-63
2022/11/22 09:08:31;;;;;;;9.25;6.78;;;;;;;-0.66;98.48;98827.09;4985431;28;20062;-64
2022/11/22 09:11:26;;;;;;;11.25;7.00;;;;;;;-0.67;98.64;98823.72;4983895;28;20030;-63
2022/11/22 09:13:51;;;;;;;12.13;7.00;;;;;;;-0.60;98.98;98822.94;4984594;28;20042;-63
2022/11/22 09:16:18;;;;;;;10.82;6.78;;;;;;;-0.66;98.79;98809.31;4985107;28;20037;-63
2022/11/22 09:18:45;;;;;;;9.93;6.80;;;;;;;-0.50;99.00;98825.53;4984923;28;20038;-63
2022/11/22 09:21:16;;;;;;;9.23;6.50;;;;;;;-0.49;98.77;98800.13;4985002;28;20327;-64
2022/11/22 09:23:44;;;;;;;11.27;6.80;;;;;;;-0.53;98.70;98799.25;4999348;28;20088;-64
2022/11/22 09:26:12;;;;;;;9.35;6.75;;;;;;;-0.43;98.76;98796.78;4994602;28;20316;-63
2022/11/22 09:28:38;;;;;;;9.75;6.72;;;;;;;-0.31;98.62;98809.59;5015422;28;20034;-63
2022/11/22 09:31:07;;;;;;;10.55;7.00;;;;;;;-0.33;98.93;98806.19;4984755;28;20045;-62
2022/11/22 09:33:35;;;;;;;13.82;7.00;;;;;;;-0.24;99.40;98815.59;4984980;28;20287;-63
2022/11/22 09:36:03;;;;;;;8.20;6.35;;;;;;;-0.38;99.08;98812.94;4985008;28;20027;-62
2022/11/22 09:38:30;;;;;;;9.68;5.97;;;;;;;-0.57;98.84;98802.63;4984792;28;20027;-63
2022/11/22 09:40:56;;;;;;;11.50;6.57;;;;;;;-0.49;98.69;98799.28;4984201;28;20031;-63
2022/11/22 09:43:28;;;;;;;8.80;5.97;;;;;;;-0.32;99.22;98807.06;4984755;28;20090;-63
2022/11/22 09:46:18;;;;;;;9.10;5.97;;;;;;;-0.20;98.23;98807.13;4985083;28;20073;-62
2022/11/22 09:49:09;;;;;;;8.30;6.07;;;;;;;-0.19;98.60;98809.69;4996732;28;20027;-62
2022/11/22 09:52:12;;;;;;;8.05;4.82;;;;;;;-0.21;98.93;98813.91;4981258;28;20038;-63
2022/11/22 09:55:00;;;;;;;10.18;5.78;;;;;;;-0.25;98.07;98816.44;4965270;28;20366;-62
2022/11/22 09:57:38;;;;;;;7.60;4.50;;;;;;;-0.47;98.19;98790.84;4965068;29;20102;-64
2022/11/22 10:00:17;;;;;;;6.82;5.15;;;;;;;-0.24;98.92;98801.19;4982784;28;20034;-64
2022/11/22 10:02:51;;;;;;;6.55;5.38;;;;;;;-0.05;98.57;98802.16;4989568;28;20114;-64
2022/11/22 10:05:23;;;;;;;7.60;5.95;;;;;;;-0.09;98.31;98800.44;4984344;28;20042;-64
2022/11/22 10:08:19;;;;;;;8.38;5.20;;;;;;;-0.25;98.51;98778.28;4990679;28;20042;-63
2022/11/22 10:10:50;;;;;;;8.07;4.85;;;;;;;-0.27;98.81;98801.16;4986392;28;20045;-62
2022/11/22 10:13:30;;;;;;;9.55;4.80;;;;;;;-0.24;98.36;98785.91;4984084;28;20022;-64
2022/11/22 10:16:26;;;;;;;6.72;4.50;;;;;;;-0.13;98.51;98800.41;4984338;28;20031;-63
2022/11/22 10:18:55;;;;;;;7.72;4.88;;;;;;;-0.14;98.34;98798.69;4979820;28;20042;-62
2022/11/22 10:21:20;;;;;;;7.43;4.53;;;;;;;0.00;98.66;98802.22;4982928;28;20235;-63
2022/11/22 10:23:46;;;;;;;7.40;4.65;;;;;;;0.00;98.59;98784.41;4994911;28;20089;-63
2022/11/22 10:26:25;;;;;;;7.95;4.80;;;;;;;0.03;98.22;98786.97;4987866;28;20023;-63
2022/11/22 10:29:03;;;;;;;6.85;5.05;;;;;;;0.07;97.93;98786.13;4984024;28;20031;-64
2022/11/22 10:31:53;;;;;;;7.95;4.90;;;;;;;-0.01;98.36;98767.41;4983788;28;20034;-63
2022/11/22 10:34:44;;;;;;;5.90;4.65;;;;;;;0.13;98.00;98782.78;4982880;28;20026;-63
2022/11/22 10:37:19;;;;;;;4.97;3.85;;;;;;;0.08;98.18;98770.00;4984116;28;20031;-63
2022/11/22 10:40:06;;;;;;;5.28;4.03;;;;;;;0.04;98.10;98781.00;4982758;28;20035;-63
2022/11/22 10:42:56;;;;;;;7.95;4.38;;;;;;;0.09;98.10;98770.88;4968036;28;20035;-63
2022/11/22 10:45:53;;;;;;;6.22;4.60;;;;;;;-0.03;98.54;98781.81;4987644;28;20034;-63
2022/11/22 10:48:36;;;;;;;6.88;4.47;;;;;;;0.08;98.67;98764.06;4988629;28;20038;-63
2022/11/22 10:51:17;;;;;;;6.45;4.57;;;;;;;0.01;98.70;98775.91;4984691;28;20039;-63
2022/11/22 10:54:10;;;;;;;7.05;4.60;;;;;;;0.01;99.09;98768.25;4988049;28;20090;-64
2022/11/22 10:56:54;;;;;;;6.78;4.65;;;;;;;0.11;98.77;98766.63;4987459;28;20085;-63
2022/11/22 10:59:49;;;;;;;6.20;5.03;;;;;;;0.12;99.12;98747.97;4987253;28;20027;-64
2022/11/22 11:02:37;;;;;;;8.75;4.45;;;;;;;0.18;98.92;98760.72;4987541;28;20253;-62
2022/11/22 11:05:09;;;;;;;4.80;3.70;;;;;;;-0.01;98.75;98736.88;4987572;28;20026;-63
2022/11/22 11:07:40;;;;;;;5.53;3.33;;;;;;;-0.01;98.92;98741.97;4976201;28;20031;-63
2022/11/22 11:10:21;;;;;;;6.85;4.25;;;;;;;0.20;99.62;98753.97;4987676;28;20033;-64
2022/11/22 11:12:59;;;;;;;6.38;4.05;;;;;;;0.23;99.58;98759.06;4987321;28;20215;-63
2022/11/22 11:15:43;;;;;;;6.38;4.40;;;;;;;0.19;99.70;98736.13;4987180;28;20035;-64
2022/11/22 11:18:16;;;;;;;5.68;3.85;;;;;;;0.24;100.00;98747.19;4987713;28;20109;-63
2022/11/22 11:20:42;;;;;;;6.32;3.97;;;;;;;0.25;99.85;98741.25;4987672;28;20030;-62
2022/11/22 11:23:09;;;;;;;5.22;3.78;;;;;;;0.27;99.58;98737.00;4993057;28;20033;-63
2022/11/22 11:25:42;;;;;;;3.83;3.38;;;;;;;0.12;100.00;98712.34;5002531;28;20039;-63
2022/11/22 11:28:31;;;;;;;5.85;3.97;;;;;;;0.25;100.00;98724.25;4987436;28;20019;-64
2022/11/22 11:31:05;;;;;;;4.55;3.50;;;;;;;0.28;100.00;98723.44;4987133;28;20033;-63
2022/11/22 11:33:34;;;;;;;7.97;4.32;;;;;;;0.24;100.00;98737.00;4966622;29;20354;-64
2022/11/22 11:36:06;;;;;;;5.18;3.70;;;;;;;0.22;100.00;98718.31;4983231;28;20101;-63
2022/11/22 11:38:37;;;;;;;5.85;3.85;;;;;;;0.45;100.00;98723.50;4987053;28;20030;-64
2022/11/22 11:41:19;;;;;;;8.13;4.57;;;;;;;0.46;100.00;98741.34;4986876;28;20289;-63
2022/11/22 11:43:45;;;;;;;6.35;3.33;;;;;;;0.46;99.95;98723.50;4986773;28;20089;-62
2022/11/22 11:46:16;;;;;;;6.35;4.05;;;;;;;0.62;100.00;98723.56;4987136;28;20095;-63
2022/11/22 11:48:42;;;;;;;5.97;3.60;;;;;;;0.60;100.00;98721.00;4986740;28;20037;-63